sensor_id;sensor_type;location;lat;lon;timestamp;temperature;humidity
13344;DHT22;6741;48.964;9.406;2023-04-16T00:01:18;7.30;99.90
13344;DHT22;6741;48.964;9.406;2023-04-16T00:03:45;7.30;99.90
13344;DHT22;6741;48.964;9.406;2023-04-16T00:06:13;7.30;99.90
13344;DHT22;6741;48.964;9.406;2023-04-16T00:08:41;7.30;99.90
13344;DHT22;6741;48.964;9.406;2023-04-16T00:11:08;7.30;99.90
13344;DHT22;6741;48.964;9.406;2023-04-16T00:13:35;7.30;99.90
13344;DHT22;6741;48.964;9.406;2023-04-16T00:16:02;7.30;99.90
13344;DHT22;6741;48.964;9.406;2023-04-16T00:18:29;7.30;99.90
13344;DHT22;6741;48.964;9.406;2023-04-16T00:20:56;7.30;99.90
13344;DHT22;6741;48.964;9.406;2023-04-16T00:23:25;7.20;99.90
13344;DHT22;6741;48.964;9.406;2023-04-16T00:25:52;7.20;99.90
13344;DHT22;6741;48.964;9.406;2023-04-16T00:28:24;7.20;99.90
13344;DHT22;6741;48.964;9.406;2023-04-16T00:30:52;7.30;99.90
13344;DHT22;6741;48.964;9.406;2023-04-16T00:33:19;7.20;99.90
13344;DHT22;6741;48.964;9.406;2023-04-16T00:35:46;7.20;99.90
13344;DHT22;6741;48.964;9.406;2023-04-16T00:38:13;7.20;99.90
13344;DHT22;6741;48.964;9.406;2023-04-16T00:40:41;7.20;99.90
13344;DHT22;6741;48.964;9.406;2023-04-16T00:43:08;7.20;99.90
13344;DHT22;6741;48.964;9.406;2023-04-16T00:45:35;7.20;99.90
13344;DHT22;6741;48.964;9.406;2023-04-16T00:48:03;7.20;99.90
13344;DHT22;6741;48.964;9.406;2023-04-16T00:50:30;7.20;99.90
13344;DHT22;6741;48.964;9.406;2023-04-16T00:52:57;7.20;99.90
13344;DHT22;6741;48.964;9.406;2023-04-16T00:55:24;7.20;99.90
13344;DHT22;6741;48.964;9.406;2023-04-16T00:57:54;7.20;99.90
13344;DHT22;6741;48.964;9.406;2023-04-16T01:00:24;7.20;99.90
13344;DHT22;6741;48.964;9.406;2023-04-16T01:02:52;7.20;99.90
13344;DHT22;6741;48.964;9.406;2023-04-16T01:05:19;7.20;99.90
13344;DHT22;6741;48.964;9.406;2023-04-16T01:07:46;7.20;99.90
13344;DHT22;6741;48.964;9.406;2023-04-16T01:10:13;7.20;99.90
13344;DHT22;6741;48.964;9.406;2023-04-16T01:12:40;7.20;99.90
13344;DHT22;6741;48.964;9.406;2023-04-16T01:15:09;7.20;99.90
13344;DHT22;6741;48.964;9.406;2023-04-16T01:17:37;7.20;99.90
13344;DHT22;6741;48.964;9.406;2023-04-16T01:20:04;7.20;99.90
13344;DHT22;6741;48.964;9.406;2023-04-16T01:22:33;7.20;99.90
13344;DHT22;6741;48.964;9.406;2023-04-16T01:25:00;7.20;99.90
13344;DHT22;6741;48.964;9.406;2023-04-16T01:27:26;7.20;99.90
13344;DHT22;6741;48.964;9.406;2023-04-16T01:29:53;7.20;99.90
13344;DHT22;6741;48.964;9.406;2023-04-16T01:32:21;7.20;99.90
13344;DHT22;6741;48.964;9.406;2023-04-16T01:34:48;7.20;99.90
13344;DHT22;6741;48.964;9.406;2023-04-16T01:37:15;7.20;99.90
13344;DHT22;6741;48.964;9.406;2023-04-16T01:39:44;7.20;99.90
13344;DHT22;6741;48.964;9.406;2023-04-16T01:42:11;7.20;99.90
13344;DHT22;6741;48.964;9.406;2023-04-16T01:44:37;7.20;99.90
13344;DHT22;6741;48.964;9.406;2023-04-16T01:47:05;7.20;99.90
13344;DHT22;6741;48.964;9.406;2023-04-16T01:49:32;7.20;99.90
13344;DHT22;6741;48.964;9.406;2023-04-16T01:51:59;7.10;99.90
13344;DHT22;6741;48.964;9.406;2023-04-16T01:54:26;7.20;99.90
13344;DHT22;6741;48.964;9.406;2023-04-16T01:56:54;7.20;99.90
13344;DHT22;6741;48.964;9.406;2023-04-16T01:59:21;7.20;99.90
13344;DHT22;6741;48.964;9.406;2023-04-16T02:01:48;7.20;99.90
13344;DHT22;6741;48.964;9.406;2023-04-16T02:04:15;7.20;99.90
13344;DHT22;6741;48.964;9.406;2023-04-16T02:06:42;7.20;99.90
13344;DHT22;6741;48.964;9.406;2023-04-16T02:09:09;7.20;99.90
13344;DHT22;6741;48.964;9.406;2023-04-16T02:11:36;7.20;99.90
13344;DHT22;6741;48.964;9.406;2023-04-16T02:14:04;7.20;99.90
13344;DHT22;6741;48.964;9.406;2023-04-16T02:16:33;7.20;99.90
13344;DHT22;6741;48.964;9.406;2023-04-16T02:18:59;7.20;99.90
13344;DHT22;6741;48.964;9.406;2023-04-16T02:21:26;7.20;99.90
13344;DHT22;6741;48.964;9.406;2023-04-16T02:23:53;7.20;99.90
13344;DHT22;6741;48.964;9.406;2023-04-16T02:26:20;7.10;99.90
13344;DHT22;6741;48.964;9.406;2023-04-16T02:28:47;7.20;99.90
13344;DHT22;6741;48.964;9.406;2023-04-16T02:31:15;7.20;99.90
13344;DHT22;6741;48.964;9.406;2023-04-16T02:33:44;7.20;99.90
13344;DHT22;6741;48.964;9.406;2023-04-16T02:36:11;7.20;99.90
13344;DHT22;6741;48.964;9.406;2023-04-16T02:38:37;7.20;99.90
13344;DHT22;6741;48.964;9.406;2023-04-16T02:41:04;7.20;99.90
13344;DHT22;6741;48.964;9.406;2023-04-16T02:43:31;7.20;99.90
13344;DHT22;6741;48.964;9.406;2023-04-16T02:45:58;7.20;99.90
13344;DHT22;6741;48.964;9.406;2023-04-16T02:48:26;7.10;99.90
13344;DHT22;6741;48.964;9.406;2023-04-16T02:50:53;7.20;99.90
13344;DHT22;6741;48.964;9.406;2023-04-16T02:53:20;7.10;99.90
13344;DHT22;6741;48.964;9.406;2023-04-16T02:55:49;7.10;99.90
13344;DHT22;6741;48.964;9.406;2023-04-16T02:58:18;7.20;99.90
13344;DHT22;6741;48.964;9.406;2023-04-16T03:00:45;7.20;99.90
13344;DHT22;6741;48.964;9.406;2023-04-16T03:03:12;7.20;99.90
13344;DHT22;6741;48.964;9.406;2023-04-16T03:05:40;7.20;99.90
13344;DHT22;6741;48.964;9.406;2023-04-16T03:08:07;7.10;99.90
13344;DHT22;6741;48.964;9.406;2023-04-16T03:10:34;7.10;99.90
13344;DHT22;6741;48.964;9.406;2023-04-16T03:13:01;7.20;99.90
13344;DHT22;6741;48.964;9.406;2023-04-16T03:15:28;7.20;99.90
13344;DHT22;6741;48.964;9.406;2023-04-16T03:17:55;7.20;99.90
13344;DHT22;6741;48.964;9.406;2023-04-16T03:20:22;7.20;99.90
13344;DHT22;6741;48.964;9.406;2023-04-16T03:22:51;7.20;99.90
13344;DHT22;6741;48.964;9.406;2023-04-16T03:25:18;7.10;99.90
13344;DHT22;6741;48.964;9.406;2023-04-16T03:27:45;7.10;99.90
13344;DHT22;6741;48.964;9.406;2023-04-16T03:30:13;7.20;99.90
13344;DHT22;6741;48.964;9.406;2023-04-16T03:32:40;7.20;99.90
13344;DHT22;6741;48.964;9.406;2023-04-16T03:35:07;7.10;99.90
13344;DHT22;6741;48.964;9.406;2023-04-16T03:37:35;7.20;99.90
13344;DHT22;6741;48.964;9.406;2023-04-16T03:40:03;7.10;99.90
13344;DHT22;6741;48.964;9.406;2023-04-16T03:42:31;7.10;99.90
13344;DHT22;6741;48.964;9.406;2023-04-16T03:44:58;7.10;99.90
13344;DHT22;6741;48.964;9.406;2023-04-16T03:47:25;7.10;99.90
13344;DHT22;6741;48.964;9.406;2023-04-16T03:49:52;7.20;99.90
13344;DHT22;6741;48.964;9.406;2023-04-16T03:52:19;7.20;99.90
13344;DHT22;6741;48.964;9.406;2023-04-16T03:54:46;7.20;99.90
13344;DHT22;6741;48.964;9.406;2023-04-16T03:57:14;7.20;99.90
13344;DHT22;6741;48.964;9.406;2023-04-16T03:59:41;7.10;99.90
13344;DHT22;6741;48.964;9.406;2023-04-16T04:02:08;7.10;99.90
13344;DHT22;6741;48.964;9.406;2023-04-16T04:04:35;7.10;99.90
13344;DHT22;6741;48.964;9.406;2023-04-16T04:07:02;7.20;99.90
13344;DHT22;6741;48.964;9.406;2023-04-16T04:09:29;7.20;99.90
13344;DHT22;6741;48.964;9.406;2023-04-16T04:11:55;7.20;99.90
13344;DHT22;6741;48.964;9.406;2023-04-16T04:14:24;7.20;99.90
13344;DHT22;6741;48.964;9.406;2023-04-16T04:16:51;7.20;99.90
13344;DHT22;6741;48.964;9.406;2023-04-16T04:19:18;7.20;99.90
13344;DHT22;6741;48.964;9.406;2023-04-16T04:21:45;7.10;99.90
13344;DHT22;6741;48.964;9.406;2023-04-16T04:24:12;7.20;99.90
13344;DHT22;6741;48.964;9.406;2023-04-16T04:26:39;7.20;99.90
13344;DHT22;6741;48.964;9.406;2023-04-16T04:29:06;7.20;99.90
13344;DHT22;6741;48.964;9.406;2023-04-16T04:31:34;7.20;99.90
13344;DHT22;6741;48.964;9.406;2023-04-16T04:34:01;7.20;99.90
13344;DHT22;6741;48.964;9.406;2023-04-16T04:36:28;7.20;99.90
13344;DHT22;6741;48.964;9.406;2023-04-16T04:38:55;7.20;99.90
13344;DHT22;6741;48.964;9.406;2023-04-16T04:41:22;7.20;99.90
13344;DHT22;6741;48.964;9.406;2023-04-16T04:43:51;7.20;99.90
13344;DHT22;6741;48.964;9.406;2023-04-16T04:46:18;7.20;99.90
13344;DHT22;6741;48.964;9.406;2023-04-16T04:48:46;7.20;99.90
13344;DHT22;6741;48.964;9.406;2023-04-16T04:51:13;7.20;99.90
13344;DHT22;6741;48.964;9.406;2023-04-16T04:53:40;7.30;99.90
13344;DHT22;6741;48.964;9.406;2023-04-16T04:56:07;7.30;99.90
13344;DHT22;6741;48.964;9.406;2023-04-16T04:58:34;7.30;99.90
13344;DHT22;6741;48.964;9.406;2023-04-16T05:01:01;7.20;99.90
13344;DHT22;6741;48.964;9.406;2023-04-16T05:03:28;7.30;99.90
13344;DHT22;6741;48.964;9.406;2023-04-16T05:05:56;7.20;99.90
13344;DHT22;6741;48.964;9.406;2023-04-16T05:08:23;7.20;99.90
13344;DHT22;6741;48.964;9.406;2023-04-16T05:10:50;7.30;99.90
13344;DHT22;6741;48.964;9.406;2023-04-16T05:13:17;7.20;99.90
13344;DHT22;6741;48.964;9.406;2023-04-16T05:15:44;7.20;99.90
13344;DHT22;6741;48.964;9.406;2023-04-16T05:18:11;7.20;99.90
13344;DHT22;6741;48.964;9.406;2023-04-16T05:20:38;7.20;99.90
13344;DHT22;6741;48.964;9.406;2023-04-16T05:23:06;7.20;99.90
13344;DHT22;6741;48.964;9.406;2023-04-16T05:25:33;7.20;99.90
13344;DHT22;6741;48.964;9.406;2023-04-16T05:28:01;7.20;99.90
13344;DHT22;6741;48.964;9.406;2023-04-16T05:30:28;7.20;99.90
13344;DHT22;6741;48.964;9.406;2023-04-16T05:32:55;7.20;99.90
13344;DHT22;6741;48.964;9.406;2023-04-16T05:35:22;7.20;99.90
13344;DHT22;6741;48.964;9.406;2023-04-16T05:37:49;7.20;99.90
13344;DHT22;6741;48.964;9.406;2023-04-16T05:40:17;7.20;99.90
13344;DHT22;6741;48.964;9.406;2023-04-16T05:42:47;7.20;99.90
13344;DHT22;6741;48.964;9.406;2023-04-16T05:45:14;7.30;99.90
13344;DHT22;6741;48.964;9.406;2023-04-16T05:47:41;7.40;99.90
13344;DHT22;6741;48.964;9.406;2023-04-16T05:50:09;7.40;99.90
13344;DHT22;6741;48.964;9.406;2023-04-16T05:52:36;7.40;99.90
13344;DHT22;6741;48.964;9.406;2023-04-16T05:55:04;7.40;99.90
13344;DHT22;6741;48.964;9.406;2023-04-16T05:57:33;7.40;99.90
13344;DHT22;6741;48.964;9.406;2023-04-16T06:00:00;7.50;99.90
13344;DHT22;6741;48.964;9.406;2023-04-16T06:02:29;7.40;99.90
13344;DHT22;6741;48.964;9.406;2023-04-16T06:04:56;7.40;99.90
13344;DHT22;6741;48.964;9.406;2023-04-16T06:07:23;7.50;99.90
13344;DHT22;6741;48.964;9.406;2023-04-16T06:09:50;7.40;99.90
13344;DHT22;6741;48.964;9.406;2023-04-16T06:12:17;7.40;99.90
13344;DHT22;6741;48.964;9.406;2023-04-16T06:14:45;7.50;99.90
13344;DHT22;6741;48.964;9.406;2023-04-16T06:17:12;7.50;99.90
13344;DHT22;6741;48.964;9.406;2023-04-16T06:19:39;7.50;99.90
13344;DHT22;6741;48.964;9.406;2023-04-16T06:22:08;7.50;99.90
13344;DHT22;6741;48.964;9.406;2023-04-16T06:24:35;7.50;99.90
13344;DHT22;6741;48.964;9.406;2023-04-16T06:27:03;7.50;99.90
13344;DHT22;6741;48.964;9.406;2023-04-16T06:29:30;7.50;99.90
13344;DHT22;6741;48.964;9.406;2023-04-16T06:31:58;7.50;99.90
13344;DHT22;6741;48.964;9.406;2023-04-16T06:34:26;7.40;99.90
13344;DHT22;6741;48.964;9.406;2023-04-16T06:36:53;7.50;99.90
13344;DHT22;6741;48.964;9.406;2023-04-16T06:39:20;7.50;99.90
13344;DHT22;6741;48.964;9.406;2023-04-16T06:41:47;7.50;99.90
13344;DHT22;6741;48.964;9.406;2023-04-16T06:44:14;7.40;99.90
13344;DHT22;6741;48.964;9.406;2023-04-16T06:46:41;7.50;99.90
13344;DHT22;6741;48.964;9.406;2023-04-16T06:49:13;7.40;99.90
13344;DHT22;6741;48.964;9.406;2023-04-16T06:51:41;7.50;99.90
13344;DHT22;6741;48.964;9.406;2023-04-16T06:54:08;7.40;99.90
13344;DHT22;6741;48.964;9.406;2023-04-16T06:56:35;7.50;99.90
13344;DHT22;6741;48.964;9.406;2023-04-16T06:59:02;7.40;99.90
13344;DHT22;6741;48.964;9.406;2023-04-16T07:01:29;7.40;99.90
13344;DHT22;6741;48.964;9.406;2023-04-16T07:03:56;7.50;99.90
13344;DHT22;6741;48.964;9.406;2023-04-16T07:06:25;7.50;99.90
13344;DHT22;6741;48.964;9.406;2023-04-16T07:08:52;7.50;99.90
13344;DHT22;6741;48.964;9.406;2023-04-16T07:11:19;7.50;99.90
13344;DHT22;6741;48.964;9.406;2023-04-16T07:13:47;7.50;99.90
13344;DHT22;6741;48.964;9.406;2023-04-16T07:16:17;7.50;99.90
13344;DHT22;6741;48.964;9.406;2023-04-16T07:18:44;7.50;99.90
13344;DHT22;6741;48.964;9.406;2023-04-16T07:23:38;7.60;99.90
13344;DHT22;6741;48.964;9.406;2023-04-16T07:26:05;7.70;99.90
13344;DHT22;6741;48.964;9.406;2023-04-16T07:28:32;7.60;99.90
13344;DHT22;6741;48.964;9.406;2023-04-16T07:30:59;7.60;99.90
13344;DHT22;6741;48.964;9.406;2023-04-16T07:33:26;7.50;99.90
13344;DHT22;6741;48.964;9.406;2023-04-16T07:35:53;7.50;99.90
13344;DHT22;6741;48.964;9.406;2023-04-16T07:38:20;7.60;99.90
13344;DHT22;6741;48.964;9.406;2023-04-16T07:40:48;7.50;99.90
13344;DHT22;6741;48.964;9.406;2023-04-16T07:43:16;7.60;99.90
13344;DHT22;6741;48.964;9.406;2023-04-16T07:45:43;7.60;99.90
13344;DHT22;6741;48.964;9.406;2023-04-16T07:48:10;7.60;99.90
13344;DHT22;6741;48.964;9.406;2023-04-16T07:50:37;7.60;99.90
13344;DHT22;6741;48.964;9.406;2023-04-16T07:53:03;7.50;99.90
13344;DHT22;6741;48.964;9.406;2023-04-16T07:55:32;7.50;99.90
13344;DHT22;6741;48.964;9.406;2023-04-16T07:58:00;7.50;99.90
13344;DHT22;6741;48.964;9.406;2023-04-16T08:00:28;7.60;99.90
13344;DHT22;6741;48.964;9.406;2023-04-16T08:02:55;7.70;99.90
13344;DHT22;6741;48.964;9.406;2023-04-16T08:05:22;7.70;99.90
13344;DHT22;6741;48.964;9.406;2023-04-16T08:07:49;7.70;99.90
13344;DHT22;6741;48.964;9.406;2023-04-16T08:10:16;7.70;99.90
13344;DHT22;6741;48.964;9.406;2023-04-16T08:12:43;7.70;99.90
13344;DHT22;6741;48.964;9.406;2023-04-16T08:15:11;7.80;99.90
13344;DHT22;6741;48.964;9.406;2023-04-16T08:17:38;7.80;99.90
13344;DHT22;6741;48.964;9.406;2023-04-16T08:20:06;7.80;99.90
13344;DHT22;6741;48.964;9.406;2023-04-16T08:22:33;7.80;99.90
13344;DHT22;6741;48.964;9.406;2023-04-16T08:25:00;7.80;99.90
13344;DHT22;6741;48.964;9.406;2023-04-16T08:27:27;7.80;99.90
13344;DHT22;6741;48.964;9.406;2023-04-16T08:29:54;7.90;99.90
13344;DHT22;6741;48.964;9.406;2023-04-16T08:32:22;8.00;99.90
13344;DHT22;6741;48.964;9.406;2023-04-16T08:34:49;8.00;99.90
13344;DHT22;6741;48.964;9.406;2023-04-16T08:37:16;8.10;99.90
13344;DHT22;6741;48.964;9.406;2023-04-16T08:39:43;8.10;99.90
13344;DHT22;6741;48.964;9.406;2023-04-16T08:42:17;8.00;99.90
13344;DHT22;6741;48.964;9.406;2023-04-16T08:44:48;7.90;99.90
13344;DHT22;6741;48.964;9.406;2023-04-16T08:47:18;7.90;99.90
13344;DHT22;6741;48.964;9.406;2023-04-16T08:49:48;7.90;99.90
13344;DHT22;6741;48.964;9.406;2023-04-16T08:52:18;7.90;99.90
13344;DHT22;6741;48.964;9.406;2023-04-16T08:54:50;7.90;99.90
13344;DHT22;6741;48.964;9.406;2023-04-16T08:57:19;8.00;99.90
13344;DHT22;6741;48.964;9.406;2023-04-16T08:59:49;8.00;99.90
13344;DHT22;6741;48.964;9.406;2023-04-16T09:02:17;8.10;99.90
13344;DHT22;6741;48.964;9.406;2023-04-16T09:04:46;8.00;99.90
13344;DHT22;6741;48.964;9.406;2023-04-16T09:07:16;8.00;99.90
13344;DHT22;6741;48.964;9.406;2023-04-16T09:09:45;8.00;99.90
13344;DHT22;6741;48.964;9.406;2023-04-16T09:12:13;8.00;99.90
13344;DHT22;6741;48.964;9.406;2023-04-16T09:14:40;7.90;99.90
13344;DHT22;6741;48.964;9.406;2023-04-16T09:17:09;8.00;99.90
13344;DHT22;6741;48.964;9.406;2023-04-16T09:19:37;8.00;99.90
13344;DHT22;6741;48.964;9.406;2023-04-16T09:22:04;8.00;99.90
13344;DHT22;6741;48.964;9.406;2023-04-16T09:24:33;7.90;99.90
13344;DHT22;6741;48.964;9.406;2023-04-16T09:27:00;7.90;99.90
13344;DHT22;6741;48.964;9.406;2023-04-16T09:29:34;7.90;99.90
13344;DHT22;6741;48.964;9.406;2023-04-16T09:32:03;7.90;99.90
13344;DHT22;6741;48.964;9.406;2023-04-16T09:34:31;7.90;99.90
13344;DHT22;6741;48.964;9.406;2023-04-16T09:37:13;8.00;99.90
13344;DHT22;6741;48.964;9.406;2023-04-16T09:39:43;8.00;99.90
13344;DHT22;6741;48.964;9.406;2023-04-16T09:42:10;8.00;99.90
13344;DHT22;6741;48.964;9.406;2023-04-16T09:44:38;7.90;99.90
13344;DHT22;6741;48.964;9.406;2023-04-16T09:47:06;7.90;99.90
13344;DHT22;6741;48.964;9.406;2023-04-16T09:49:34;7.90;99.90
13344;DHT22;6741;48.964;9.406;2023-04-16T09:52:01;7.90;99.90
13344;DHT22;6741;48.964;9.406;2023-04-16T09:54:29;7.90;99.90
13344;DHT22;6741;48.964;9.406;2023-04-16T09:57:00;7.90;99.90
13344;DHT22;6741;48.964;9.406;2023-04-16T09:59:27;7.80;99.90
13344;DHT22;6741;48.964;9.406;2023-04-16T10:01:59;7.80;99.90
13344;DHT22;6741;48.964;9.406;2023-04-16T10:04:26;7.80;99.90
13344;DHT22;6741;48.964;9.406;2023-04-16T10:07:03;7.80;99.90
13344;DHT22;6741;48.964;9.406;2023-04-16T10:09:32;7.90;99.90
13344;DHT22;6741;48.964;9.406;2023-04-16T10:12:04;7.90;99.90
13344;DHT22;6741;48.964;9.406;2023-04-16T10:14:32;7.90;99.90
13344;DHT22;6741;48.964;9.406;2023-04-16T10:16:59;7.90;99.90
13344;DHT22;6741;48.964;9.406;2023-04-16T10:19:26;7.90;99.90
13344;DHT22;6741;48.964;9.406;2023-04-16T10:21:54;7.90;99.90
13344;DHT22;6741;48.964;9.406;2023-04-16T10:24:21;7.80;99.90
13344;DHT22;6741;48.964;9.406;2023-04-16T10:26:49;7.80;99.90
13344;DHT22;6741;48.964;9.406;2023-04-16T10:29:19;7.80;99.90
13344;DHT22;6741;48.964;9.406;2023-04-16T10:31:47;7.80;99.90
13344;DHT22;6741;48.964;9.406;2023-04-16T10:34:14;7.80;99.90
13344;DHT22;6741;48.964;9.406;2023-04-16T10:36:42;7.80;99.90
13344;DHT22;6741;48.964;9.406;2023-04-16T10:39:10;7.90;99.90
13344;DHT22;6741;48.964;9.406;2023-04-16T10:41:38;7.90;99.90
13344;DHT22;6741;48.964;9.406;2023-04-16T10:44:06;7.80;99.90
13344;DHT22;6741;48.964;9.406;2023-04-16T10:46:38;7.80;99.90
13344;DHT22;6741;48.964;9.406;2023-04-16T10:49:12;7.80;99.90
13344;DHT22;6741;48.964;9.406;2023-04-16T10:51:40;7.80;99.90
13344;DHT22;6741;48.964;9.406;2023-04-16T10:54:26;7.80;99.90
13344;DHT22;6741;48.964;9.406;2023-04-16T10:56:56;7.80;99.90
13344;DHT22;6741;48.964;9.406;2023-04-16T10:59:24;7.90;99.90
13344;DHT22;6741;48.964;9.406;2023-04-16T11:01:54;8.00;99.90
13344;DHT22;6741;48.964;9.406;2023-04-16T11:04:35;7.90;99.90
13344;DHT22;6741;48.964;9.406;2023-04-16T11:07:05;7.80;99.90
13344;DHT22;6741;48.964;9.406;2023-04-16T11:09:44;7.80;99.90
13344;DHT22;6741;48.964;9.406;2023-04-16T11:12:13;7.80;99.90
13344;DHT22;6741;48.964;9.406;2023-04-16T11:14:41;7.90;99.90
13344;DHT22;6741;48.964;9.406;2023-04-16T11:17:10;7.90;99.90
13344;DHT22;6741;48.964;9.406;2023-04-16T11:19:37;8.00;99.90
13344;DHT22;6741;48.964;9.406;2023-04-16T11:22:04;8.00;99.90
13344;DHT22;6741;48.964;9.406;2023-04-16T11:24:32;8.00;99.90
13344;DHT22;6741;48.964;9.406;2023-04-16T11:26:59;8.00;99.90
13344;DHT22;6741;48.964;9.406;2023-04-16T11:29:27;7.90;99.90
13344;DHT22;6741;48.964;9.406;2023-04-16T11:31:54;7.90;99.90
13344;DHT22;6741;48.964;9.406;2023-04-16T11:34:23;7.90;99.90
13344;DHT22;6741;48.964;9.406;2023-04-16T11:36:50;8.00;99.90
13344;DHT22;6741;48.964;9.406;2023-04-16T11:39:18;8.10;99.90
13344;DHT22;6741;48.964;9.406;2023-04-16T11:41:46;8.10;99.90
13344;DHT22;6741;48.964;9.406;2023-04-16T11:44:17;8.10;99.90
13344;DHT22;6741;48.964;9.406;2023-04-16T11:46:44;8.10;99.90
13344;DHT22;6741;48.964;9.406;2023-04-16T11:49:11;8.10;99.90
13344;DHT22;6741;48.964;9.406;2023-04-16T11:51:40;8.10;99.90
13344;DHT22;6741;48.964;9.406;2023-04-16T11:54:07;8.20;99.90
13344;DHT22;6741;48.964;9.406;2023-04-16T11:56:36;8.20;99.90
13344;DHT22;6741;48.964;9.406;2023-04-16T11:59:07;8.20;99.90
13344;DHT22;6741;48.964;9.406;2023-04-16T12:01:35;8.10;99.90
13344;DHT22;6741;48.964;9.406;2023-04-16T12:04:03;8.20;99.90
13344;DHT22;6741;48.964;9.406;2023-04-16T12:06:30;8.30;99.90
13344;DHT22;6741;48.964;9.406;2023-04-16T12:08:59;8.30;99.90
13344;DHT22;6741;48.964;9.406;2023-04-16T12:11:39;8.40;99.90
13344;DHT22;6741;48.964;9.406;2023-04-16T12:14:08;8.40;99.90
13344;DHT22;6741;48.964;9.406;2023-04-16T12:16:35;8.40;99.90
13344;DHT22;6741;48.964;9.406;2023-04-16T12:19:04;8.50;99.90
13344;DHT22;6741;48.964;9.406;2023-04-16T12:21:38;8.50;99.90
13344;DHT22;6741;48.964;9.406;2023-04-16T12:24:08;8.50;99.90
13344;DHT22;6741;48.964;9.406;2023-04-16T12:26:42;8.50;99.90
13344;DHT22;6741;48.964;9.406;2023-04-16T12:29:17;8.30;99.90
13344;DHT22;6741;48.964;9.406;2023-04-16T12:31:45;8.40;99.90
13344;DHT22;6741;48.964;9.406;2023-04-16T12:34:12;8.40;99.90
13344;DHT22;6741;48.964;9.406;2023-04-16T12:36:41;8.40;99.90
13344;DHT22;6741;48.964;9.406;2023-04-16T12:39:10;8.50;99.90
13344;DHT22;6741;48.964;9.406;2023-04-16T12:41:39;8.50;99.90
13344;DHT22;6741;48.964;9.406;2023-04-16T12:44:08;8.50;99.90
13344;DHT22;6741;48.964;9.406;2023-04-16T12:46:37;8.50;99.90
13344;DHT22;6741;48.964;9.406;2023-04-16T12:49:05;8.50;99.90
13344;DHT22;6741;48.964;9.406;2023-04-16T12:51:33;8.50;99.90
13344;DHT22;6741;48.964;9.406;2023-04-16T12:54:01;8.50;99.90
13344;DHT22;6741;48.964;9.406;2023-04-16T12:56:30;8.50;99.90
13344;DHT22;6741;48.964;9.406;2023-04-16T12:58:57;8.60;99.90
13344;DHT22;6741;48.964;9.406;2023-04-16T13:01:25;8.60;99.90
13344;DHT22;6741;48.964;9.406;2023-04-16T13:03:52;8.60;99.90
13344;DHT22;6741;48.964;9.406;2023-04-16T13:06:19;8.70;99.90
13344;DHT22;6741;48.964;9.406;2023-04-16T13:08:46;8.70;99.90
13344;DHT22;6741;48.964;9.406;2023-04-16T13:11:13;8.60;99.90
13344;DHT22;6741;48.964;9.406;2023-04-16T13:13:42;8.60;99.90
13344;DHT22;6741;48.964;9.406;2023-04-16T13:16:09;8.70;99.90
13344;DHT22;6741;48.964;9.406;2023-04-16T13:18:37;8.70;99.90
13344;DHT22;6741;48.964;9.406;2023-04-16T13:21:04;8.70;99.90
13344;DHT22;6741;48.964;9.406;2023-04-16T13:23:31;8.70;99.90
13344;DHT22;6741;48.964;9.406;2023-04-16T13:25:58;8.70;99.90
13344;DHT22;6741;48.964;9.406;2023-04-16T13:28:26;8.70;99.90
13344;DHT22;6741;48.964;9.406;2023-04-16T13:30:55;8.70;99.90
13344;DHT22;6741;48.964;9.406;2023-04-16T13:33:22;8.70;99.90
13344;DHT22;6741;48.964;9.406;2023-04-16T13:35:49;8.70;99.90
13344;DHT22;6741;48.964;9.406;2023-04-16T13:38:16;8.70;99.90
13344;DHT22;6741;48.964;9.406;2023-04-16T13:40:43;8.60;99.90
13344;DHT22;6741;48.964;9.406;2023-04-16T13:43:11;8.70;99.90
13344;DHT22;6741;48.964;9.406;2023-04-16T13:45:41;8.70;99.90
13344;DHT22;6741;48.964;9.406;2023-04-16T13:48:10;8.80;99.90
13344;DHT22;6741;48.964;9.406;2023-04-16T13:50:37;8.70;99.90
13344;DHT22;6741;48.964;9.406;2023-04-16T13:53:04;8.80;99.90
13344;DHT22;6741;48.964;9.406;2023-04-16T13:55:31;8.80;99.90
13344;DHT22;6741;48.964;9.406;2023-04-16T13:57:58;8.70;99.90
13344;DHT22;6741;48.964;9.406;2023-04-16T14:00:25;8.70;99.90
13344;DHT22;6741;48.964;9.406;2023-04-16T14:02:53;8.70;99.90
13344;DHT22;6741;48.964;9.406;2023-04-16T14:05:21;8.60;99.90
13344;DHT22;6741;48.964;9.406;2023-04-16T14:07:50;8.60;99.90
13344;DHT22;6741;48.964;9.406;2023-04-16T14:10:17;8.60;99.90
13344;DHT22;6741;48.964;9.406;2023-04-16T14:12:44;8.60;99.90
13344;DHT22;6741;48.964;9.406;2023-04-16T14:15:12;8.70;99.90
13344;DHT22;6741;48.964;9.406;2023-04-16T14:17:41;8.70;99.90
13344;DHT22;6741;48.964;9.406;2023-04-16T14:20:10;8.70;99.90
13344;DHT22;6741;48.964;9.406;2023-04-16T14:22:38;8.70;99.90
13344;DHT22;6741;48.964;9.406;2023-04-16T14:25:07;8.70;99.90
13344;DHT22;6741;48.964;9.406;2023-04-16T14:27:34;8.70;99.90
13344;DHT22;6741;48.964;9.406;2023-04-16T14:30:02;8.70;99.90
13344;DHT22;6741;48.964;9.406;2023-04-16T14:32:29;8.70;99.90
13344;DHT22;6741;48.964;9.406;2023-04-16T14:34:56;8.70;99.90
13344;DHT22;6741;48.964;9.406;2023-04-16T14:37:23;8.70;99.90
13344;DHT22;6741;48.964;9.406;2023-04-16T14:39:52;8.70;99.90
13344;DHT22;6741;48.964;9.406;2023-04-16T14:42:19;8.70;99.90
13344;DHT22;6741;48.964;9.406;2023-04-16T14:44:47;8.70;99.90
13344;DHT22;6741;48.964;9.406;2023-04-16T14:47:14;8.70;99.90
13344;DHT22;6741;48.964;9.406;2023-04-16T14:49:41;8.70;99.90
13344;DHT22;6741;48.964;9.406;2023-04-16T14:52:09;8.70;99.90
13344;DHT22;6741;48.964;9.406;2023-04-16T14:54:36;8.70;99.90
13344;DHT22;6741;48.964;9.406;2023-04-16T14:57:04;8.70;99.90
13344;DHT22;6741;48.964;9.406;2023-04-16T14:59:31;8.70;99.90
13344;DHT22;6741;48.964;9.406;2023-04-16T15:01:58;8.70;99.90
13344;DHT22;6741;48.964;9.406;2023-04-16T15:04:25;8.70;99.90
13344;DHT22;6741;48.964;9.406;2023-04-16T15:06:52;8.80;99.90
13344;DHT22;6741;48.964;9.406;2023-04-16T15:09:23;8.70;99.90
13344;DHT22;6741;48.964;9.406;2023-04-16T15:11:50;8.70;99.90
13344;DHT22;6741;48.964;9.406;2023-04-16T15:14:19;8.70;99.90
13344;DHT22;6741;48.964;9.406;2023-04-16T15:16:46;8.70;99.90
13344;DHT22;6741;48.964;9.406;2023-04-16T15:19:15;8.70;99.90
13344;DHT22;6741;48.964;9.406;2023-04-16T15:21:42;8.80;99.90
13344;DHT22;6741;48.964;9.406;2023-04-16T15:24:10;8.80;99.90
13344;DHT22;6741;48.964;9.406;2023-04-16T15:26:37;8.80;99.90
13344;DHT22;6741;48.964;9.406;2023-04-16T15:29:04;8.80;99.90
13344;DHT22;6741;48.964;9.406;2023-04-16T15:31:33;8.70;99.90
13344;DHT22;6741;48.964;9.406;2023-04-16T15:34:00;8.70;99.90
13344;DHT22;6741;48.964;9.406;2023-04-16T15:36:27;8.70;99.90
13344;DHT22;6741;48.964;9.406;2023-04-16T15:38:54;8.80;99.90
13344;DHT22;6741;48.964;9.406;2023-04-16T15:41:21;8.80;99.90
13344;DHT22;6741;48.964;9.406;2023-04-16T15:43:49;8.80;99.90
13344;DHT22;6741;48.964;9.406;2023-04-16T15:46:16;8.80;99.90
13344;DHT22;6741;48.964;9.406;2023-04-16T15:48:47;8.80;99.90
13344;DHT22;6741;48.964;9.406;2023-04-16T15:51:13;8.80;99.90
13344;DHT22;6741;48.964;9.406;2023-04-16T15:53:41;8.80;99.90
13344;DHT22;6741;48.964;9.406;2023-04-16T15:56:09;8.80;99.90
13344;DHT22;6741;48.964;9.406;2023-04-16T15:58:36;8.80;99.90
13344;DHT22;6741;48.964;9.406;2023-04-16T16:01:04;8.80;99.90
13344;DHT22;6741;48.964;9.406;2023-04-16T16:03:31;8.80;99.90
13344;DHT22;6741;48.964;9.406;2023-04-16T16:06:01;8.80;99.90
13344;DHT22;6741;48.964;9.406;2023-04-16T16:08:29;8.80;99.90